Data for 05/23/2015

Time Sea-Level Adjusted Pressure Absolute Pressure Temperature Relative Humidity Dew Point   
(mb) (inHg) (mb) (inHg) (C) (F) (%) (C) (F)
00:05 1017 30.03 846 24.98 9.4 48.9 75 5.2 41.3
00:10 1017 30.03 846 24.98 9.5 49 74 5.2 41.3
00:15 1017 30.03 846 24.98 9.6 49.2 75 5.3 41.6
00:20 1017 30.03 846 24.98 9.6 49.2 75 5.4 41.6
00:25 1017 30.03 846 24.98 9.6 49.3 75 5.4 41.7
00:30 1017 30.03 846 24.98 9.6 49.2 75 5.4 41.8
00:35 1017 30.03 846 24.98 9.5 49.2 75 5.4 41.8
00:40 1017 30.03 846 24.98 9.6 49.2 75 5.4 41.7
00:45 1017 30.03 846 24.98 9.7 49.5 75 5.4 41.8
00:50 1017 30.03 846 24.98 9.8 49.6 74 5.4 41.8
00:55 1017 30.03 846 24.98 9.9 49.8 74 5.5 41.9
01:00 1017 30.03 846 24.98 9.9 49.9 74 5.5 41.9
01:05 1017 30.03 846 24.98 10 50 74 5.6 42.1
01:10 1017 30.03 846 24.98 10 50 74 5.6 42.1
01:15 1017 30.03 846 24.98 9.9 49.8 75 5.6 42.2
01:20 1017 30.03 846 24.98 9.8 49.6 75 5.6 42
01:25 1017 30.03 846 24.98 9.8 49.6 75 5.6 42.1
01:30 1017 30.03 846 24.98 9.8 49.6 75 5.6 42.2
01:35 1017 30.03 846 24.98 9.7 49.5 76 5.7 42.2
01:40 1017 30.03 846 24.98 9.7 49.4 75 5.6 42
01:45 1017 30.03 846 24.98 9.7 49.5 76 5.6 42.1
01:50 1017 30.03 846 24.98 9.6 49.3 76 5.6 42.1
01:55 1017 30.03 846 24.98 9.6 49.3 76 5.6 42.1
02:00 1017 30.03 846 24.98 9.5 49.2 76 5.6 42.1
02:05 1017 30.03 846 24.98 9.6 49.2 76 5.6 42
02:10 1017 30.03 846 24.98 9.6 49.2 76 5.6 42
02:15 1017 30.03 846 24.98 9.6 49.2 76 5.6 42.1
02:20 1017 30.03 846 24.98 9.6 49.3 76 5.6 42.1
02:25 1017 30.03 846 24.98 9.6 49.3 76 5.7 42.2
02:30 1017 30.03 846 24.98 9.7 49.4 75 5.6 42
02:35 1017 30.03 846 24.98 9.7 49.5 76 5.7 42.2
02:40 1017 30.03 846 24.98 9.7 49.5 76 5.7 42.3
02:45 1017 30.03 846 24.98 9.7 49.4 76 5.8 42.4
02:50 1017 30.03 846 24.98 9.6 49.2 77 5.8 42.4
02:55 1017 30.03 846 24.98 9.5 49.1 77 5.7 42.2
03:00 1017 30.03 846 24.98 9.6 49.3 76 5.6 42.1
03:05 1017 30.03 846 24.98 9.7 49.4 76 5.6 42.2
03:10 1017 30.03 846 24.98 9.7 49.5 76 5.7 42.2
03:15 1017 30.03 846 24.98 9.7 49.4 76 5.8 42.4
03:20 1017 30.03 846 24.98 9.6 49.3 77 5.8 42.4
03:25 1017 30.03 846 24.98 9.6 49.2 77 5.8 42.5
03:30 1017 30.03 846 24.98 9.6 49.3 77 5.8 42.4
03:35 1017 30.03 846 24.98 9.6 49.3 77 5.8 42.4
03:40 1017 30.03 846 24.98 9.6 49.3 77 5.8 42.5
03:45 1017 30.03 846 24.98 9.6 49.3 77 5.8 42.5
03:50 1017 30.03 846 24.98 9.6 49.3 77 5.9 42.5
03:55 1017 30.03 846 24.98 9.6 49.2 78 5.9 42.6
04:00 1017 30.03 846 24.98 9.6 49.2 78 5.9 42.6
04:05 1017 30.03 846 24.98 9.5 49.1 78 5.9 42.6
04:10 1017 30.03 846 24.98 9.4 49 79 5.9 42.7
04:15 1017 30.03 846 24.98 9.4 48.9 79 5.9 42.7
04:20 1017 30.03 846 24.98 9.3 48.8 79 5.9 42.7
04:25 1017 30.03 846 24.98 9.3 48.7 79 5.9 42.7
04:30 1017 30.03 846 24.98 9.3 48.7 79 5.7 42.3
04:35 1017 30.03 846 24.98 9.2 48.5 78 5.5 41.9
04:40 1017 30.03 846 24.98 9.1 48.3 78 5.4 41.8
04:45 1017 30.03 846 24.98 9 48.2 78 5.4 41.8
04:50 1017 30.03 846 24.98 9 48.2 78 5.3 41.6
04:55 1017 30.03 846 24.98 9 48.2 77 5.3 41.5
05:00 1017 30.03 846 24.98 9.1 48.3 77 5.2 41.4
05:05 1017 30.03 846 24.98 9.2 48.5 77 5.4 41.7
05:10 1017 30.03 846 24.98 9.2 48.5 79 5.8 42.4
05:15 1017 30.03 846 24.98 9.2 48.6 79 5.9 42.6
05:20 1017 30.03 846 24.98 9.3 48.8 79 5.9 42.7
05:25 1017 30.03 847 25.01 9.4 48.9 79 6 42.8
05:30 1017 30.03 847 25.01 9.4 48.8 80 6.2 43.1
05:35 1017 30.03 847 25.01 9.3 48.7 81 6.2 43.2
05:40 1017 30.03 847 25.01 9.3 48.7 83 6.6 43.8
05:45 1017 30.03 847 25.01 9 48.3 86 6.8 44.3
05:50 1017 30.03 847 25.01 8.8 47.9 87 6.8 44.3
05:55 1017 30.03 847 25.01 8.8 47.8 87 6.8 44.2
06:00 1017 30.03 847 25.01 8.8 47.8 88 6.9 44.3
06:05 1017 30.03 847 25.01 8.8 47.8 88 6.9 44.5
06:10 1017 30.03 847 25.01 8.8 47.8 88 6.8 44.3
06:15 1017 30.03 847 25.01 8.9 48 87 6.8 44.3
06:20 1017 30.03 847 25.01 8.9 48.1 87 6.9 44.5
06:25 1017 30.03 846 24.98 9 48.1 87 6.9 44.4
06:30 1017 30.03 847 25.01 9 48.2 86 6.8 44.3
06:35 1017 30.03 846 24.98 9.1 48.4 86 6.8 44.3
06:40 1017 30.03 847 25.01 9.1 48.4 86 6.9 44.5
06:45 1017 30.03 847 25.01 9.2 48.5 86 7 44.6
06:50 1017 30.03 847 25.01 9.2 48.6 86 7.1 44.8
06:55 1017 30.03 847 25.01 9.3 48.7 87 7.2 44.9
07:00 1017 30.03 847 25.01 9.4 48.9 87 7.3 45.2
07:05 1018 30.06 847 25.01 9.4 48.9 85 7 44.6
07:10 1018 30.06 847 25.01 9.4 49 84 6.9 44.4
07:15 1018 30.06 847 25.01 9.5 49 84 6.9 44.4
07:20 1018 30.06 847 25.01 9.5 49.2 84 6.9 44.5
07:25 1018 30.06 847 25.01 9.6 49.2 84 6.9 44.5
07:30 1018 30.06 847 25.01 9.6 49.2 84 7 44.6
07:35 1018 30.06 847 25.01 9.6 49.2 84 7 44.5
07:40 1018 30.06 847 25.01 9.6 49.3 84 7 44.6
07:45 1018 30.06 847 25.01 9.7 49.4 83 6.9 44.5
07:50 1018 30.06 847 25.01 9.7 49.5 83 6.9 44.5
07:55 1018 30.06 847 25.01 9.8 49.6 82 6.9 44.5
08:00 1018 30.06 847 25.01 9.8 49.6 83 7 44.5
08:05 1018 30.06 847 25.01 9.8 49.6 83 7 44.7
08:10 1018 30.06 847 25.01 9.8 49.6 84 7.1 44.9
08:15 1018 30.06 847 25.01 9.6 49.3 85 7.3 45.1
08:20 1018 30.06 847 25.01 9.4 49 87 7.3 45.2
08:25 1018 30.06 847 25.01 9.3 48.8 88 7.4 45.3
08:30 1018 30.06 847 25.01 9.4 48.9 88 7.6 45.6
08:35 1018 30.06 847 25.01 9.5 49 88 7.6 45.7
08:40 1018 30.06 847 25.01 9.5 49.1 88 7.7 45.8
08:45 1018 30.06 847 25.01 9.5 49.1 89 7.8 46
08:50 1018 30.06 847 25.01 9.6 49.3 88 7.7 45.9
08:55 1018 30.06 847 25.01 9.6 49.2 88 7.7 45.9
09:00 1018 30.06 847 25.01 9.6 49.2 88 7.8 46
09:05 1018 30.06 847 25.01 9.6 49.3 88 7.7 45.9
09:10 1018 30.06 847 25.01 9.5 49.1 88 7.6 45.7
09:15 1018 30.06 847 25.01 9.4 49 88 7.6 45.7
09:20 1018 30.06 847 25.01 9.4 48.8 86 7.2 44.9
09:25 1018 30.06 847 25.01 9.4 48.9 83 6.7 44.1
09:30 1018 30.06 847 25.01 9.5 49 84 7 44.6
09:35 1018 30.06 847 25.01 9.6 49.2 84 7 44.6
09:40 1018 30.06 847 25.01 9.5 49.2 83 6.8 44.2
09:45 1018 30.06 847 25.01 9.4 48.8 84 6.8 44.2
09:50 1018 30.06 847 25.01 9.5 49.1 83 6.8 44.2
09:55 1018 30.06 847 25.01 9.7 49.4 83 7 44.6
10:00 1018 30.06 847 25.01 9.8 49.6 82 6.8 44.2
10:05 1018 30.06 847 25.01 9.6 49.3 82 6.7 44.1
10:10 1018 30.06 847 25.01 9.5 49 84 6.9 44.4
10:15 1018 30.06 848 25.04 9.4 48.9 84 6.8 44.2
10:20 1018 30.06 848 25.04 9.4 49 85 7 44.6
10:25 1018 30.06 848 25.04 9.4 48.9 86 7.1 44.8
10:30 1018 30.06 848 25.04 9.5 49 86 7.2 45
10:35 1018 30.06 848 25.04 9.4 49 86 7.2 45
10:40 1018 30.06 848 25.04 9.5 49 86 7.2 45
10:45 1018 30.06 848 25.04 9.4 48.9 87 7.4 45.3
10:50 1018 30.06 848 25.04 9.5 49.1 86 7.3 45.2
10:55 1018 30.06 848 25.04 9.7 49.5 84 7.2 45
11:00 1018 30.06 848 25.04 10 50.1 86 7.7 45.9
11:05 1018 30.06 848 25.04 10.5 50.9 82 7.7 45.8
11:10 1018 30.06 848 25.04 10.4 50.7 81 7.3 45.1
11:15 1018 30.06 848 25.04 10.4 50.8 85 8 46.3
11:20 1018 30.06 848 25.04 10.8 51.4 84 8.2 46.8
11:25 1018 30.06 848 25.04 10.8 51.4 76 6.7 44
11:30 1018 30.06 848 25.04 10.4 50.8 78 6.7 44.1
11:35 1018 30.06 848 25.04 10.5 50.9 78 6.8 44.2
11:40 1018 30.06 848 25.04 10.7 51.2 77 6.9 44.4
11:45 1018 30.06 848 25.04 10.6 51.1 76 6.6 43.9
11:50 1018 30.06 848 25.04 10.7 51.2 77 6.9 44.4
11:55 1018 30.06 848 25.04 10.7 51.3 75 6.5 43.6
12:00 1018 30.06 848 25.04 10.7 51.3 77 6.9 44.4
12:05 1018 30.06 848 25.04 11 51.8 78 7.2 45
12:10 1018 30.06 848 25.04 11.1 52 78 7.5 45.5
12:15 1019 30.09 848 25.04 11.2 52.1 72 6.3 43.4
12:20 1019 30.09 848 25.04 10.9 51.7 77 7 44.6
12:25 1019 30.09 848 25.04 10.5 50.9 77 6.6 43.9
12:30 1019 30.09 848 25.04 10.3 50.6 77 6.4 43.5
12:35 1019 30.09 848 25.04 10.3 50.5 77 6.5 43.7
12:40 1019 30.09 848 25.04 10.4 50.6 80 7.1 44.7
12:45 1019 30.09 848 25.04 10.5 51 82 7.6 45.6
12:50 1019 30.09 848 25.04 10.7 51.2 79 7.2 44.9
12:55 1019 30.09 848 25.04 10.7 51.3 74 6.2 43.2
13:00 1019 30.09 848 25.04 10.8 51.5 76 6.8 44.2
13:05 1019 30.09 848 25.04 10.9 51.5 72 6 42.9
13:10 1019 30.09 848 25.04 11.1 52 74 6.7 44.1
13:15 1019 30.09 848 25.04 11.3 52.4 74 7 44.5
13:20 1019 30.09 848 25.04 11.4 52.6 75 7.2 44.9
13:25 1019 30.09 848 25.04 11.3 52.3 78 7.6 45.6
13:30 1019 30.09 848 25.04 11.7 53 69 6.2 43.2
13:35 1019 30.09 848 25.04 11.6 52.8 72 6.8 44.2
13:40 1019 30.09 848 25.04 11.5 52.8 72 6.7 44.1
13:45 1019 30.09 848 25.04 11.2 52.2 74 6.8 44.2
13:50 1019 30.09 848 25.04 11.6 52.8 72 6.8 44.2
13:55 1019 30.09 848 25.04 11.7 53 72 6.7 44.1
14:00 1019 30.09 848 25.04 11.6 52.8 76 7.4 45.4
14:05 1019 30.09 848 25.04 11.5 52.6 76 7.4 45.3
14:10 1019 30.09 848 25.04 11.4 52.5 77 7.5 45.6
14:15 1019 30.09 848 25.04 11.3 52.3 78 7.6 45.7
14:20 1019 30.09 848 25.04 11.1 52 79 7.7 45.9
14:25 1019 30.09 848 25.04 10.9 51.5 82 8 46.4
14:30 1019 30.09 848 25.04 10.7 51.3 81 7.6 45.6
14:35 1019 30.09 848 25.04 10.6 51.1 82 7.8 46
14:40 1019 30.09 848 25.04 10.9 51.7 82 7.9 46.2
14:45 1019 30.09 848 25.04 11.6 52.9 82 8.7 47.6
14:50 1019 30.09 848 25.04 12.1 53.7 80 8.6 47.6
14:55 1019 30.09 848 25.04 12 53.5 78 8.2 46.8
15:00 1019 30.09 848 25.04 11.6 52.9 81 8.4 47.2
15:05 1019 30.09 848 25.04 11.3 52.3 82 8.4 47.1
15:10 1019 30.09 848 25.04 10.8 51.5 85 8.4 47.2
15:15 1019 30.09 848 25.04 10.8 51.5 85 8.3 47
15:20 1019 30.09 848 25.04 11.1 52 82 8.2 46.7
15:25 1019 30.09 848 25.04 11.3 52.4 82 8.3 47
15:30 1019 30.09 848 25.04 11.4 52.5 83 8.5 47.4
15:35 1019 30.09 848 25.04 11.3 52.3 82 8.4 47.1
15:40 1019 30.09 848 25.04 11.2 52.1 80 8 46.3
15:45 1019 30.09 848 25.04 10.9 51.7 81 7.7 45.9
15:50 1019 30.09 848 25.04 10.6 51.1 79 7.2 44.9
15:55 1019 30.09 848 25.04 10.6 51.1 80 7.3 45.2
16:00 1019 30.09 848 25.04 10.7 51.2 78 6.9 44.5
16:05 1019 30.09 848 25.04 10.8 51.4 78 7 44.6
16:10 1019 30.09 848 25.04 10.7 51.3 77 6.9 44.4
16:15 1019 30.09 848 25.04 10.6 51.1 79 7.1 44.7
16:20 1019 30.09 848 25.04 10.6 51.2 77 6.8 44.3
16:25 1019 30.09 848 25.04 10.7 51.3 77 6.9 44.4
16:30 1019 30.09 848 25.04 10.8 51.4 79 7.4 45.3
16:35 1019 30.09 848 25.04 10.7 51.2 79 7.1 44.9
16:40 1019 30.09 848 25.04 10.4 50.6 79 6.9 44.4
16:45 1019 30.09 848 25.04 10.1 50.1 82 7.1 44.8
16:50 1019 30.09 848 25.04 9.8 49.7 82 6.8 44.3
16:55 1019 30.09 848 25.04 9.9 49.7 82 7 44.6
17:00 1019 30.09 848 25.04 10 49.9 82 7.1 44.7
17:05 1019 30.09 848 25.04 9.9 49.8 82 6.9 44.5
17:10 1019 30.09 848 25.04 9.8 49.7 80 6.6 43.9
17:15 1019 30.09 848 25.04 9.9 49.8 81 6.7 44.1
17:20 1019 30.09 848 25.04 9.9 49.8 82 7 44.7
17:25 1019 30.09 848 25.04 10.1 50.2 82 7.2 45
17:30 1019 30.09 848 25.04 10.2 50.4 81 7.1 44.9
17:35 1019 30.09 848 25.04 10.2 50.4 83 7.5 45.6
17:40 1019 30.09 848 25.04 10.4 50.7 82 7.5 45.5
17:45 1019 30.09 848 25.04 10.5 50.9 81 7.3 45.2
17:50 1019 30.09 848 25.04 10.6 51.1 80 7.3 45.1
17:55 1019 30.09 848 25.04 10.6 51.2 80 7.3 45.2
18:00 1019 30.09 848 25.04 10.7 51.2 76 6.7 44
18:05 1019 30.09 848 25.04 10.7 51.2 78 6.9 44.5
18:10 1019 30.09 848 25.04 10.7 51.3 77 6.9 44.4
18:15 1019 30.09 848 25.04 10.7 51.3 77 6.8 44.2
18:20 1019 30.09 848 25.04 10.7 51.2 78 7 44.5
18:25 1019 30.09 848 25.04 10.7 51.2 77 6.9 44.4
18:30 1019 30.09 848 25.04 10.8 51.4 77 7 44.6
18:35 1019 30.09 849 25.07 10.8 51.4 76 6.7 44.1
18:40 1019 30.09 849 25.07 10.8 51.5 74 6.4 43.5
18:45 1019 30.09 849 25.07 10.8 51.5 75 6.6 44
18:50 1019 30.09 849 25.07 10.7 51.3 77 6.9 44.4
18:55 1019 30.09 849 25.07 10.7 51.2 78 7 44.7
19:00 1019 30.09 849 25.07 10.6 51.1 80 7.3 45.1
19:05 1019 30.09 848 25.04 10.6 51.1 80 7.3 45.2
19:10 1019 30.09 849 25.07 10.6 51.1 79 7.2 44.9
19:15 1019 30.09 849 25.07 10.4 50.7 80 7.1 44.7
19:20 1019 30.09 849 25.07 10.4 50.7 79 6.9 44.5
19:25 1019 30.09 849 25.07 10.4 50.6 80 7 44.6
19:30 1019 30.09 849 25.07 10.3 50.5 80 7.1 44.7
19:35 1019 30.09 849 25.07 10.2 50.4 81 7 44.7
19:40 1019 30.09 849 25.07 10 50 83 7.3 45.2
19:45 1019 30.09 849 25.07 10 49.9 84 7.4 45.4
19:50 1019 30.09 849 25.07 10 49.9 85 7.6 45.6
19:55 1019 30.09 849 25.07 10 49.9 86 7.8 46
20:00 1019 30.09 849 25.07 9.9 49.8 87 7.9 46.2
20:05 1019 30.09 849 25.07 9.8 49.7 88 8 46.4
20:10 1019 30.09 849 25.07 9.7 49.5 89 8 46.3
20:15 1019 30.09 849 25.07 9.5 49.2 89 7.9 46.2
20:20 1020 30.12 849 25.07 9.5 49 89 7.7 45.9
20:25 1020 30.12 849 25.07 9.4 48.8 89 7.6 45.6
20:30 1020 30.12 849 25.07 9.3 48.8 87 7.3 45.1
20:35 1020 30.12 849 25.07 9.4 48.9 86 7.2 44.9
20:40 1020 30.12 849 25.07 9.3 48.7 86 7.1 44.8
20:45 1020 30.12 849 25.07 9.3 48.7 86 7.1 44.7
20:50 1020 30.12 849 25.07 9.3 48.7 85 6.9 44.4
20:55 1020 30.12 849 25.07 9.3 48.7 86 7.1 44.7
21:00 1020 30.12 849 25.07 9.4 48.9 83 6.7 44.1
21:05 1020 30.12 849 25.07 9.5 49.1 85 7.1 44.7
21:10 1020 30.12 849 25.07 9.4 48.9 85 7 44.7
21:15 1020 30.12 849 25.07 9.3 48.8 86 7.1 44.7
21:20 1020 30.12 849 25.07 9.3 48.8 86 7.1 44.8
21:25 1020 30.12 849 25.07 9.3 48.7 87 7.2 44.9
21:30 1020 30.12 849 25.07 9.2 48.5 87 7.1 44.8
21:35 1020 30.12 849 25.07 9.1 48.4 87 7.1 44.8
21:40 1020 30.12 849 25.07 9.1 48.3 88 7.2 44.9
21:45 1020 30.12 849 25.07 9 48.3 88 7.1 44.9
21:50 1020 30.12 849 25.07 9 48.2 88 7.1 44.8
21:55 1020 30.12 849 25.07 9 48.2 87 7 44.7
22:00 1020 30.12 849 25.07 9.1 48.3 87 7.1 44.7
22:05 1020 30.12 849 25.07 9.1 48.3 87 7.1 44.7
22:10 1020 30.12 849 25.07 8.9 48 88 7.1 44.7
22:15 1020 30.12 849 25.07 8.8 47.9 89 7.1 44.8
22:20 1020 30.12 849 25.07 8.8 47.9 89 7.1 44.7
22:25 1020 30.12 849 25.07 8.8 47.9 89 7 44.7
22:30 1020 30.12 849 25.07 8.9 48 88 7.1 44.7
22:35 1020 30.12 849 25.07 8.9 48 88 7.1 44.7
22:40 1020 30.12 849 25.07 8.9 48 89 7.1 44.8
22:45 1020 30.12 849 25.07 8.8 47.8 89 7.1 44.7
22:50 1020 30.12 849 25.07 8.8 47.8 89 7.1 44.8
22:55 1020 30.12 849 25.07 8.8 47.8 89 7.1 44.8
23:00 1020 30.12 849 25.07 8.7 47.7 89 7.1 44.8
23:05 1020 30.12 849 25.07 8.6 47.5 90 7.1 44.8
23:10 1020 30.12 849 25.07 8.6 47.5 91 7.2 45
23:15 1020 30.12 849 25.07 8.6 47.5 91 7.2 44.9
23:20 1020 30.12 849 25.07 8.5 47.4 90 7 44.6
23:25 1020 30.12 849 25.07 8.5 47.3 90 7 44.5
23:30 1020 30.12 849 25.07 8.5 47.3 90 6.9 44.4
23:35 1020 30.12 849 25.07 8.5 47.2 90 6.8 44.3
23:40 1020 30.12 849 25.07 8.4 47.2 90 6.8 44.3
23:45 1020 30.12 849 25.07 8.4 47.1 89 6.7 44.1
23:50 1020 30.12 849 25.07 8.3 47 89 6.7 44
23:55 1020 30.12 849 25.07 8.4 47 89 6.6 43.9
24:00 1020 30.12 849 25.07 8.3 47 90 6.7 44.1